Nashville, Tennessee
Traffic Map
Current Weather Conditions
Nashville, Tennessee
Broken Clouds
Broken Clouds
59°
Feels Like: 59°
Wind Chill: 59° Ceiling: 25000
Heat Index: 59° Visibility: 10mi
Dew Point: 49° Wind: 0mph
Humidity: 69% Direction: ° ()
Pressure: 30.28in Gusts: 0mph
Raw Report DataKBNA 230453Z 00000KT 10SM BKN250 15/09 A3028 RMK AO2 SLP249 T01500094
Traffic Incident Summary
Active as of:
Severity:
Category:
InformationThere was an issue retrieving the traffic information for this location. Please try a different location or try again shortly.
Advertisements
Track Severe Weather on mobile